sensor_id;sensor_type;location;lat;lon;timestamp;pressure;altitude;pressure_sealevel;temperature;humidity
25350;BME280;13302;48.796;11.978;2023-12-07T00:00:18;97012.88;;;3.36;43.98
25350;BME280;13302;48.796;11.978;2023-12-07T00:03:05;97010.06;;;3.41;43.77
25350;BME280;13302;48.796;11.978;2023-12-07T00:05:55;97009.03;;;3.37;43.81
25350;BME280;13302;48.796;11.978;2023-12-07T00:08:42;97010.97;;;3.37;43.98
25350;BME280;13302;48.796;11.978;2023-12-07T00:11:29;97016.44;;;3.37;43.96
25350;BME280;13302;48.796;11.978;2023-12-07T00:14:16;97019.69;;;3.39;44.06
25350;BME280;13302;48.796;11.978;2023-12-07T00:17:03;97019.38;;;3.40;43.91
25350;BME280;13302;48.796;11.978;2023-12-07T00:19:50;97019.06;;;3.42;43.97
25350;BME280;13302;48.796;11.978;2023-12-07T00:22:40;97025.03;;;3.44;43.97
25350;BME280;13302;48.796;11.978;2023-12-07T00:25:28;97025.47;;;3.51;43.68
25350;BME280;13302;48.796;11.978;2023-12-07T00:28:15;97033.47;;;3.61;43.19
25350;BME280;13302;48.796;11.978;2023-12-07T00:31:03;97031.66;;;3.70;42.84
25350;BME280;13302;48.796;11.978;2023-12-07T00:33:50;97039.38;;;3.68;43.00
25350;BME280;13302;48.796;11.978;2023-12-07T00:36:37;97029.53;;;3.67;43.04
25350;BME280;13302;48.796;11.978;2023-12-07T00:39:26;97025.69;;;3.54;43.21
25350;BME280;13302;48.796;11.978;2023-12-07T00:42:13;97027.06;;;3.52;43.17
25350;BME280;13302;48.796;11.978;2023-12-07T00:45:00;97027.47;;;3.45;43.35
25350;BME280;13302;48.796;11.978;2023-12-07T00:47:48;97022.41;;;3.39;43.62
25350;BME280;13302;48.796;11.978;2023-12-07T00:50:35;97027.16;;;3.33;43.77
25350;BME280;13302;48.796;11.978;2023-12-07T00:53:23;97030.28;;;3.40;43.62
25350;BME280;13302;48.796;11.978;2023-12-07T00:56:10;97033.44;;;3.34;43.74
25350;BME280;13302;48.796;11.978;2023-12-07T00:58:57;97037.50;;;3.50;43.29
25350;BME280;13302;48.796;11.978;2023-12-07T01:01:44;97034.16;;;3.53;43.12
25350;BME280;13302;48.796;11.978;2023-12-07T01:04:31;97037.09;;;3.56;43.08
25350;BME280;13302;48.796;11.978;2023-12-07T01:07:18;97036.09;;;3.52;43.06
25350;BME280;13302;48.796;11.978;2023-12-07T01:10:06;97041.47;;;3.57;43.02
25350;BME280;13302;48.796;11.978;2023-12-07T01:12:53;97043.09;;;3.58;42.79
25350;BME280;13302;48.796;11.978;2023-12-07T01:15:40;97052.00;;;3.50;43.20
25350;BME280;13302;48.796;11.978;2023-12-07T01:18:27;97052.88;;;3.46;43.21
25350;BME280;13302;48.796;11.978;2023-12-07T01:21:14;97057.34;;;3.42;43.29
25350;BME280;13302;48.796;11.978;2023-12-07T01:24:01;97061.50;;;3.53;43.04
25350;BME280;13302;48.796;11.978;2023-12-07T01:27:01;97063.88;;;3.59;42.84
25350;BME280;13302;48.796;11.978;2023-12-07T01:29:48;97054.03;;;3.58;42.88
25350;BME280;13302;48.796;11.978;2023-12-07T01:32:35;97069.00;;;3.61;42.71
25350;BME280;13302;48.796;11.978;2023-12-07T01:35:22;97067.97;;;3.57;42.75
25350;BME280;13302;48.796;11.978;2023-12-07T01:38:09;97071.00;;;3.42;42.94
25350;BME280;13302;48.796;11.978;2023-12-07T01:40:57;97081.72;;;3.52;42.88
25350;BME280;13302;48.796;11.978;2023-12-07T01:43:47;97079.47;;;3.40;43.10
25350;BME280;13302;48.796;11.978;2023-12-07T01:46:35;97075.22;;;3.34;43.07
25350;BME280;13302;48.796;11.978;2023-12-07T01:49:22;97081.28;;;3.12;43.58
25350;BME280;13302;48.796;11.978;2023-12-07T01:52:10;97087.78;;;3.35;43.09
25350;BME280;13302;48.796;11.978;2023-12-07T01:54:57;97085.25;;;3.39;43.18
25350;BME280;13302;48.796;11.978;2023-12-07T01:57:45;97090.72;;;3.39;43.11
25350;BME280;13302;48.796;11.978;2023-12-07T02:00:33;97095.75;;;3.32;43.32
25350;BME280;13302;48.796;11.978;2023-12-07T02:03:20;97092.38;;;3.21;43.45
25350;BME280;13302;48.796;11.978;2023-12-07T02:06:08;97090.75;;;3.20;43.47
25350;BME280;13302;48.796;11.978;2023-12-07T02:08:55;97094.00;;;3.22;43.52
25350;BME280;13302;48.796;11.978;2023-12-07T02:11:43;97101.81;;;3.29;43.46
25350;BME280;13302;48.796;11.978;2023-12-07T02:14:30;97094.66;;;3.33;43.31
25350;BME280;13302;48.796;11.978;2023-12-07T02:17:42;97101.06;;;3.23;43.41
25350;BME280;13302;48.796;11.978;2023-12-07T02:21:01;97103.44;;;3.30;43.15
25350;BME280;13302;48.796;11.978;2023-12-07T02:23:51;97096.34;;;3.29;43.21
25350;BME280;13302;48.796;11.978;2023-12-07T02:26:41;97097.56;;;3.23;43.30
25350;BME280;13302;48.796;11.978;2023-12-07T02:29:28;97096.22;;;3.20;43.50
25350;BME280;13302;48.796;11.978;2023-12-07T02:32:16;97093.19;;;3.21;43.23
25350;BME280;13302;48.796;11.978;2023-12-07T02:35:03;97104.19;;;3.35;43.07
25350;BME280;13302;48.796;11.978;2023-12-07T02:37:52;97099.69;;;3.26;43.33
25350;BME280;13302;48.796;11.978;2023-12-07T02:40:40;97098.78;;;3.30;43.42
25350;BME280;13302;48.796;11.978;2023-12-07T02:43:28;97100.09;;;3.33;43.30
25350;BME280;13302;48.796;11.978;2023-12-07T02:46:16;97100.09;;;3.33;43.23
25350;BME280;13302;48.796;11.978;2023-12-07T02:49:03;97099.09;;;3.29;43.20
25350;BME280;13302;48.796;11.978;2023-12-07T02:51:50;97101.59;;;3.25;43.34
25350;BME280;13302;48.796;11.978;2023-12-07T02:54:37;97106.63;;;3.18;43.48
25350;BME280;13302;48.796;11.978;2023-12-07T02:57:24;97105.06;;;3.12;43.57
25350;BME280;13302;48.796;11.978;2023-12-07T03:00:12;97111.63;;;3.11;43.73
25350;BME280;13302;48.796;11.978;2023-12-07T03:03:00;97106.63;;;3.18;43.57
25350;BME280;13302;48.796;11.978;2023-12-07T03:05:47;97113.94;;;3.23;43.25
25350;BME280;13302;48.796;11.978;2023-12-07T03:08:34;97121.41;;;3.17;43.58
25350;BME280;13302;48.796;11.978;2023-12-07T03:11:21;97120.31;;;3.18;43.38
25350;BME280;13302;48.796;11.978;2023-12-07T03:14:08;97122.53;;;3.11;43.64
25350;BME280;13302;48.796;11.978;2023-12-07T03:16:55;97118.50;;;3.08;43.81
25350;BME280;13302;48.796;11.978;2023-12-07T03:19:42;97124.19;;;3.12;43.79
25350;BME280;13302;48.796;11.978;2023-12-07T03:22:29;97125.28;;;3.11;43.95
25350;BME280;13302;48.796;11.978;2023-12-07T03:25:17;97125.00;;;3.12;43.92
25350;BME280;13302;48.796;11.978;2023-12-07T03:28:04;97124.13;;;3.17;43.70
25350;BME280;13302;48.796;11.978;2023-12-07T03:30:51;97123.59;;;3.15;43.77
25350;BME280;13302;48.796;11.978;2023-12-07T03:33:41;97129.06;;;3.15;43.84
25350;BME280;13302;48.796;11.978;2023-12-07T03:36:28;97131.81;;;3.15;43.91
25350;BME280;13302;48.796;11.978;2023-12-07T03:39:18;97139.41;;;3.18;43.77
25350;BME280;13302;48.796;11.978;2023-12-07T03:42:12;97136.09;;;3.21;43.64
25350;BME280;13302;48.796;11.978;2023-12-07T03:45:20;97140.56;;;3.12;43.92
25350;BME280;13302;48.796;11.978;2023-12-07T03:48:07;97143.63;;;3.29;43.52
25350;BME280;13302;48.796;11.978;2023-12-07T03:50:54;97139.78;;;3.30;43.52
25350;BME280;13302;48.796;11.978;2023-12-07T03:53:41;97146.63;;;3.28;43.21
25350;BME280;13302;48.796;11.978;2023-12-07T03:56:29;97148.88;;;3.26;43.40
25350;BME280;13302;48.796;11.978;2023-12-07T03:59:16;97153.50;;;3.25;43.55
25350;BME280;13302;48.796;11.978;2023-12-07T04:02:03;97149.06;;;3.29;43.39
25350;BME280;13302;48.796;11.978;2023-12-07T04:04:50;97150.94;;;3.34;43.24
25350;BME280;13302;48.796;11.978;2023-12-07T04:07:37;97150.31;;;3.37;43.19
25350;BME280;13302;48.796;11.978;2023-12-07T04:10:25;97148.25;;;3.29;43.40
25350;BME280;13302;48.796;11.978;2023-12-07T04:13:12;97155.44;;;3.25;43.69
25350;BME280;13302;48.796;11.978;2023-12-07T04:15:59;97153.91;;;3.18;43.52
25350;BME280;13302;48.796;11.978;2023-12-07T04:18:46;97161.28;;;3.18;43.72
25350;BME280;13302;48.796;11.978;2023-12-07T04:21:33;97160.97;;;3.19;43.62
25350;BME280;13302;48.796;11.978;2023-12-07T04:24:20;97161.78;;;3.20;43.87
25350;BME280;13302;48.796;11.978;2023-12-07T04:27:07;97163.13;;;3.23;43.58
25350;BME280;13302;48.796;11.978;2023-12-07T04:29:54;97164.72;;;3.42;43.09
25350;BME280;13302;48.796;11.978;2023-12-07T04:32:41;97170.25;;;3.37;43.09
25350;BME280;13302;48.796;11.978;2023-12-07T04:35:30;97169.88;;;3.44;43.15
25350;BME280;13302;48.796;11.978;2023-12-07T04:38:17;97168.41;;;3.33;43.33
25350;BME280;13302;48.796;11.978;2023-12-07T04:41:04;97173.06;;;3.32;43.32
25350;BME280;13302;48.796;11.978;2023-12-07T04:43:51;97177.34;;;3.38;43.14
25350;BME280;13302;48.796;11.978;2023-12-07T04:46:38;97174.41;;;3.35;43.15
25350;BME280;13302;48.796;11.978;2023-12-07T04:49:26;97174.41;;;3.35;43.23
25350;BME280;13302;48.796;11.978;2023-12-07T04:52:13;97178.19;;;3.39;43.07
25350;BME280;13302;48.796;11.978;2023-12-07T04:55:01;97177.34;;;3.38;43.12
25350;BME280;13302;48.796;11.978;2023-12-07T04:57:48;97180.63;;;3.21;43.35
25350;BME280;13302;48.796;11.978;2023-12-07T05:00:35;97179.13;;;3.29;43.28
25350;BME280;13302;48.796;11.978;2023-12-07T05:03:22;97179.34;;;3.33;43.22
25350;BME280;13302;48.796;11.978;2023-12-07T05:06:09;97180.97;;;3.34;43.01
25350;BME280;13302;48.796;11.978;2023-12-07T05:08:57;97185.69;;;3.28;43.29
25350;BME280;13302;48.796;11.978;2023-12-07T05:11:44;97189.78;;;3.31;43.26
25350;BME280;13302;48.796;11.978;2023-12-07T05:14:32;97193.19;;;3.23;43.36
25350;BME280;13302;48.796;11.978;2023-12-07T05:17:20;97181.94;;;3.24;43.21
25350;BME280;13302;48.796;11.978;2023-12-07T05:20:07;97188.75;;;3.27;43.36
25350;BME280;13302;48.796;11.978;2023-12-07T05:22:54;97189.09;;;3.20;43.54
25350;BME280;13302;48.796;11.978;2023-12-07T05:25:41;97190.72;;;3.21;43.53
25350;BME280;13302;48.796;11.978;2023-12-07T05:28:29;97187.19;;;3.20;43.51
25350;BME280;13302;48.796;11.978;2023-12-07T05:31:17;97188.59;;;3.18;43.34
25350;BME280;13302;48.796;11.978;2023-12-07T05:34:04;97193.75;;;3.19;43.29
25350;BME280;13302;48.796;11.978;2023-12-07T05:36:52;97194.69;;;3.10;43.60
25350;BME280;13302;48.796;11.978;2023-12-07T05:39:39;97195.72;;;3.14;43.48
25350;BME280;13302;48.796;11.978;2023-12-07T05:42:26;97193.53;;;3.16;43.57
25350;BME280;13302;48.796;11.978;2023-12-07T05:45:13;97193.00;;;3.14;43.51
25350;BME280;13302;48.796;11.978;2023-12-07T05:48:00;97191.91;;;3.15;43.47
25350;BME280;13302;48.796;11.978;2023-12-07T05:50:48;97203.06;;;3.18;43.35
25350;BME280;13302;48.796;11.978;2023-12-07T05:53:37;97203.63;;;3.15;43.51
25350;BME280;13302;48.796;11.978;2023-12-07T05:56:24;97206.47;;;3.29;43.27
25350;BME280;13302;48.796;11.978;2023-12-07T05:59:12;97208.38;;;3.29;42.94
25350;BME280;13302;48.796;11.978;2023-12-07T06:01:59;97213.03;;;3.28;43.11
25350;BME280;13302;48.796;11.978;2023-12-07T06:04:46;97202.97;;;3.23;43.07
25350;BME280;13302;48.796;11.978;2023-12-07T06:07:33;97204.22;;;3.31;42.81
25350;BME280;13302;48.796;11.978;2023-12-07T06:10:20;97200.34;;;3.18;43.12
25350;BME280;13302;48.796;11.978;2023-12-07T06:13:08;97194.09;;;3.13;43.23
25350;BME280;13302;48.796;11.978;2023-12-07T06:15:55;97203.09;;;3.13;43.23
25350;BME280;13302;48.796;11.978;2023-12-07T06:18:42;97203.06;;;3.18;43.00
25350;BME280;13302;48.796;11.978;2023-12-07T06:21:29;97209.25;;;3.24;42.86
25350;BME280;13302;48.796;11.978;2023-12-07T06:24:17;97210.88;;;3.25;42.67
25350;BME280;13302;48.796;11.978;2023-12-07T06:27:04;97208.81;;;3.17;42.95
25350;BME280;13302;48.796;11.978;2023-12-07T06:29:51;97208.13;;;3.06;43.21
25350;BME280;13302;48.796;11.978;2023-12-07T06:32:38;97200.81;;;3.02;43.32
25350;BME280;13302;48.796;11.978;2023-12-07T06:35:25;97212.06;;;2.95;43.35
25350;BME280;13302;48.796;11.978;2023-12-07T06:38:12;97216.38;;;3.01;43.27
25350;BME280;13302;48.796;11.978;2023-12-07T06:40:59;97209.22;;;3.05;43.20
25350;BME280;13302;48.796;11.978;2023-12-07T06:43:46;97214.97;;;3.04;43.41
25350;BME280;13302;48.796;11.978;2023-12-07T06:46:33;97216.31;;;3.06;43.33
25350;BME280;13302;48.796;11.978;2023-12-07T06:49:21;97221.69;;;3.11;43.32
25350;BME280;13302;48.796;11.978;2023-12-07T06:52:11;97218.69;;;3.13;43.35
25350;BME280;13302;48.796;11.978;2023-12-07T06:54:59;97222.81;;;3.10;43.22
25350;BME280;13302;48.796;11.978;2023-12-07T06:57:46;97224.78;;;3.05;43.22
25350;BME280;13302;48.796;11.978;2023-12-07T07:00:33;97227.25;;;3.06;43.04
25350;BME280;13302;48.796;11.978;2023-12-07T07:03:20;97224.78;;;3.05;43.10
25350;BME280;13302;48.796;11.978;2023-12-07T07:06:08;97233.06;;;3.00;43.08
25350;BME280;13302;48.796;11.978;2023-12-07T07:08:55;97229.81;;;2.98;43.22
25350;BME280;13302;48.796;11.978;2023-12-07T07:11:49;97233.47;;;2.88;43.19
25350;BME280;13302;48.796;11.978;2023-12-07T07:14:36;97234.28;;;2.89;43.27
25350;BME280;13302;48.796;11.978;2023-12-07T07:17:23;97244.34;;;2.93;43.32
25350;BME280;13302;48.796;11.978;2023-12-07T07:20:11;97248.03;;;3.02;43.00
25350;BME280;13302;48.796;11.978;2023-12-07T07:22:58;97247.72;;;2.85;43.21
25350;BME280;13302;48.796;11.978;2023-12-07T07:25:45;97249.53;;;3.13;42.62
25350;BME280;13302;48.796;11.978;2023-12-07T07:28:32;97244.63;;;3.15;42.62
25350;BME280;13302;48.796;11.978;2023-12-07T07:31:19;97250.69;;;3.07;42.72
25350;BME280;13302;48.796;11.978;2023-12-07T07:34:06;97250.06;;;3.15;42.67
25350;BME280;13302;48.796;11.978;2023-12-07T07:36:54;97260.56;;;3.27;42.41
25350;BME280;13302;48.796;11.978;2023-12-07T07:39:41;97248.16;;;3.16;42.73
25350;BME280;13302;48.796;11.978;2023-12-07T07:42:28;97246.34;;;3.30;42.46
25350;BME280;13302;48.796;11.978;2023-12-07T07:45:16;97253.34;;;3.36;42.33
25350;BME280;13302;48.796;11.978;2023-12-07T07:48:03;97251.59;;;3.27;42.43
25350;BME280;13302;48.796;11.978;2023-12-07T07:50:50;97251.66;;;3.21;42.59
25350;BME280;13302;48.796;11.978;2023-12-07T07:53:37;97244.66;;;3.10;42.71
25350;BME280;13302;48.796;11.978;2023-12-07T07:56:24;97246.25;;;3.16;42.62
25350;BME280;13302;48.796;11.978;2023-12-07T07:59:11;97256.91;;;3.18;42.59
25350;BME280;13302;48.796;11.978;2023-12-07T08:01:59;97256.56;;;3.19;42.66
25350;BME280;13302;48.796;11.978;2023-12-07T08:04:46;97255.59;;;3.10;42.60
25350;BME280;13302;48.796;11.978;2023-12-07T08:07:33;97263.91;;;3.00;42.97
25350;BME280;13302;48.796;11.978;2023-12-07T08:10:20;97262.00;;;3.01;42.93
25350;BME280;13302;48.796;11.978;2023-12-07T08:13:07;97259.75;;;3.03;43.00
25350;BME280;13302;48.796;11.978;2023-12-07T08:15:54;97257.19;;;3.11;42.73
25350;BME280;13302;48.796;11.978;2023-12-07T08:18:44;97255.13;;;3.03;42.83
25350;BME280;13302;48.796;11.978;2023-12-07T08:21:31;97263.16;;;3.18;42.53
25350;BME280;13302;48.796;11.978;2023-12-07T08:24:18;97252.53;;;3.17;42.62
25350;BME280;13302;48.796;11.978;2023-12-07T08:27:05;97251.47;;;3.13;42.51
25350;BME280;13302;48.796;11.978;2023-12-07T08:29:52;97251.66;;;3.21;42.37
25350;BME280;13302;48.796;11.978;2023-12-07T08:32:39;97248.38;;;3.19;42.39
25350;BME280;13302;48.796;11.978;2023-12-07T08:35:27;97259.47;;;3.28;42.24
25350;BME280;13302;48.796;11.978;2023-12-07T08:38:14;97257.50;;;3.34;42.19
25350;BME280;13302;48.796;11.978;2023-12-07T08:41:01;97262.97;;;3.34;42.27
25350;BME280;13302;48.796;11.978;2023-12-07T08:43:50;97263.47;;;3.36;42.15
25350;BME280;13302;48.796;11.978;2023-12-07T08:46:37;97261.03;;;3.34;42.42
25350;BME280;13302;48.796;11.978;2023-12-07T08:49:24;97265.03;;;3.42;42.36
25350;BME280;13302;48.796;11.978;2023-12-07T08:52:12;97267.97;;;3.45;42.15
25350;BME280;13302;48.796;11.978;2023-12-07T08:55:17;97279.34;;;3.52;42.24
25350;BME280;13302;48.796;11.978;2023-12-07T08:58:06;97278.25;;;3.53;42.31
25350;BME280;13302;48.796;11.978;2023-12-07T09:00:53;97261.34;;;3.51;42.20
25350;BME280;13302;48.796;11.978;2023-12-07T09:03:40;97267.53;;;3.57;42.17
25350;BME280;13302;48.796;11.978;2023-12-07T09:06:28;97264.94;;;3.65;41.94
25350;BME280;13302;48.796;11.978;2023-12-07T09:09:16;97265.84;;;3.61;42.05
25350;BME280;13302;48.796;11.978;2023-12-07T09:12:03;97263.03;;;3.66;42.28
25350;BME280;13302;48.796;11.978;2023-12-07T09:14:51;97260.22;;;3.71;42.25
25350;BME280;13302;48.796;11.978;2023-12-07T09:17:39;97266.50;;;3.72;42.18
25350;BME280;13302;48.796;11.978;2023-12-07T09:20:26;97269.97;;;3.77;42.01
25350;BME280;13302;48.796;11.978;2023-12-07T09:23:14;97272.19;;;3.75;42.13
25350;BME280;13302;48.796;11.978;2023-12-07T09:26:04;97270.78;;;3.78;42.19
25350;BME280;13302;48.796;11.978;2023-12-07T09:28:51;97266.72;;;3.75;42.11
25350;BME280;13302;48.796;11.978;2023-12-07T09:31:38;97262.06;;;3.76;41.88
25350;BME280;13302;48.796;11.978;2023-12-07T09:34:25;97256.88;;;3.74;42.02
25350;BME280;13302;48.796;11.978;2023-12-07T09:37:12;97260.94;;;3.77;42.24
25350;BME280;13302;48.796;11.978;2023-12-07T09:40:00;97254.38;;;3.78;42.26
25350;BME280;13302;48.796;11.978;2023-12-07T09:42:49;97258.66;;;3.84;42.18
25350;BME280;13302;48.796;11.978;2023-12-07T09:45:36;97254.44;;;3.91;42.13
25350;BME280;13302;48.796;11.978;2023-12-07T09:48:23;97263.66;;;3.95;42.15
25350;BME280;13302;48.796;11.978;2023-12-07T09:51:11;97257.38;;;3.95;41.94
25350;BME280;13302;48.796;11.978;2023-12-07T09:53:58;97251.63;;;3.96;42.25
25350;BME280;13302;48.796;11.978;2023-12-07T09:56:46;97255.66;;;3.99;42.20
25350;BME280;13302;48.796;11.978;2023-12-07T09:59:35;97248.69;;;4.06;42.16
25350;BME280;13302;48.796;11.978;2023-12-07T10:02:22;97247.38;;;4.04;42.28
25350;BME280;13302;48.796;11.978;2023-12-07T10:05:11;97244.94;;;4.02;42.28
25350;BME280;13302;48.796;11.978;2023-12-07T10:08:00;97238.44;;;3.98;42.45
25350;BME280;13302;48.796;11.978;2023-12-07T10:11:01;97243.50;;;3.91;42.58
25350;BME280;13302;48.796;11.978;2023-12-07T10:13:49;97238.22;;;3.95;42.55
25350;BME280;13302;48.796;11.978;2023-12-07T10:16:37;97234.81;;;4.03;42.39
25350;BME280;13302;48.796;11.978;2023-12-07T10:19:24;97240.06;;;3.99;42.66
25350;BME280;13302;48.796;11.978;2023-12-07T10:22:18;97238.97;;;4.00;42.59
25350;BME280;13302;48.796;11.978;2023-12-07T10:25:05;97234.59;;;3.99;42.68
25350;BME280;13302;48.796;11.978;2023-12-07T10:27:53;97230.06;;;4.08;42.41
25350;BME280;13302;48.796;11.978;2023-12-07T10:30:41;97230.66;;;4.05;42.25
25350;BME280;13302;48.796;11.978;2023-12-07T10:33:30;97233.63;;;4.23;42.10
25350;BME280;13302;48.796;11.978;2023-12-07T10:36:17;97226.25;;;4.23;42.30
25350;BME280;13302;48.796;11.978;2023-12-07T10:39:05;97221.19;;;4.30;42.25
25350;BME280;13302;48.796;11.978;2023-12-07T10:42:02;97215.63;;;4.35;42.02
25350;BME280;13302;48.796;11.978;2023-12-07T10:44:53;97209.53;;;4.38;41.96
25350;BME280;13302;48.796;11.978;2023-12-07T10:47:45;97212.59;;;4.50;41.54
25350;BME280;13302;48.796;11.978;2023-12-07T10:50:46;97206.81;;;4.52;41.75
25350;BME280;13302;48.796;11.978;2023-12-07T10:53:43;97203.78;;;4.53;41.66
25350;BME280;13302;48.796;11.978;2023-12-07T10:56:45;97201.25;;;4.57;41.45
25350;BME280;13302;48.796;11.978;2023-12-07T10:59:33;97202.34;;;4.56;41.44
25350;BME280;13302;48.796;11.978;2023-12-07T11:02:22;97204.81;;;4.57;41.61
25350;BME280;13302;48.796;11.978;2023-12-07T11:05:10;97203.78;;;4.53;41.57
25350;BME280;13302;48.796;11.978;2023-12-07T11:08:09;97204.28;;;4.55;41.79
25350;BME280;13302;48.796;11.978;2023-12-07T11:13:56;97199.81;;;4.59;41.60
25350;BME280;13302;48.796;11.978;2023-12-07T11:16:46;97199.81;;;4.59;41.42
25350;BME280;13302;48.796;11.978;2023-12-07T11:22:23;97192.34;;;4.65;41.35
25350;BME280;13302;48.796;11.978;2023-12-07T11:25:11;97191.31;;;4.61;41.55
25350;BME280;13302;48.796;11.978;2023-12-07T11:28:03;97196.47;;;4.62;41.24
25350;BME280;13302;48.796;11.978;2023-12-07T11:30:50;97193.34;;;4.69;40.86
25350;BME280;13302;48.796;11.978;2023-12-07T11:33:41;97186.22;;;4.68;40.56
25350;BME280;13302;48.796;11.978;2023-12-07T11:36:28;97185.63;;;4.71;40.31
25350;BME280;13302;48.796;11.978;2023-12-07T11:39:16;97187.97;;;4.64;40.52
25350;BME280;13302;48.796;11.978;2023-12-07T11:42:19;97187.47;;;4.62;40.26
25350;BME280;13302;48.796;11.978;2023-12-07T11:45:09;97186.84;;;4.65;39.76
25350;BME280;13302;48.796;11.978;2023-12-07T11:48:09;97178.44;;;4.61;39.98
25350;BME280;13302;48.796;11.978;2023-12-07T11:51:01;97170.22;;;4.61;39.66
25350;BME280;13302;48.796;11.978;2023-12-07T11:53:48;97170.03;;;4.58;39.44
25350;BME280;13302;48.796;11.978;2023-12-07T11:56:37;97162.19;;;4.51;39.35
25350;BME280;13302;48.796;11.978;2023-12-07T11:59:24;97162.00;;;4.48;39.55
25350;BME280;13302;48.796;11.978;2023-12-07T12:02:20;97158.88;;;4.41;39.70
25350;BME280;13302;48.796;11.978;2023-12-07T12:05:09;97163.81;;;4.39;39.71
25350;BME280;13302;48.796;11.978;2023-12-07T12:07:56;97163.25;;;4.42;39.39
25350;BME280;13302;48.796;11.978;2023-12-07T12:10:44;97167.78;;;4.33;39.39
25350;BME280;13302;48.796;11.978;2023-12-07T12:13:36;97166.16;;;4.32;39.41
25350;BME280;13302;48.796;11.978;2023-12-07T12:16:24;97156.31;;;4.31;39.41
25350;BME280;13302;48.796;11.978;2023-12-07T12:19:11;97161.78;;;4.31;39.22
25350;BME280;13302;48.796;11.978;2023-12-07T12:22:05;97147.19;;;4.22;39.31
25350;BME280;13302;48.796;11.978;2023-12-07T12:24:55;97148.00;;;4.22;39.45
25350;BME280;13302;48.796;11.978;2023-12-07T12:27:42;97155.91;;;4.24;39.41
25350;BME280;13302;48.796;11.978;2023-12-07T12:30:31;97150.53;;;4.19;39.36
25350;BME280;13302;48.796;11.978;2023-12-07T12:33:19;97143.44;;;4.18;39.35
25350;BME280;13302;48.796;11.978;2023-12-07T12:36:07;97138.78;;;4.18;39.26
25350;BME280;13302;48.796;11.978;2023-12-07T12:38:54;97140.41;;;4.19;39.08
25350;BME280;13302;48.796;11.978;2023-12-07T12:41:42;97133.91;;;4.15;39.07
25350;BME280;13302;48.796;11.978;2023-12-07T12:44:32;97127.63;;;4.14;39.06
25350;BME280;13302;48.796;11.978;2023-12-07T12:47:24;97125.09;;;4.18;38.94
25350;BME280;13302;48.796;11.978;2023-12-07T12:50:32;97113.84;;;4.06;38.85
25350;BME280;13302;48.796;11.978;2023-12-07T12:53:20;97106.75;;;4.05;39.55
25350;BME280;13302;48.796;11.978;2023-12-07T12:56:07;97107.38;;;4.15;39.22
25350;BME280;13302;48.796;11.978;2023-12-07T12:58:54;97106.84;;;4.13;39.32
25350;BME280;13302;48.796;11.978;2023-12-07T13:01:51;97112.63;;;4.12;39.53
25350;BME280;13302;48.796;11.978;2023-12-07T13:04:38;97115.47;;;4.07;39.75
25350;BME280;13302;48.796;11.978;2023-12-07T13:07:28;97104.53;;;4.07;39.89
25350;BME280;13302;48.796;11.978;2023-12-07T13:10:16;97106.34;;;4.11;40.02
25350;BME280;13302;48.796;11.978;2023-12-07T13:13:03;97106.84;;;4.13;39.85
25350;BME280;13302;48.796;11.978;2023-12-07T13:15:51;97108.66;;;4.18;39.86
25350;BME280;13302;48.796;11.978;2023-12-07T13:18:38;97101.69;;;4.26;39.73
25350;BME280;13302;48.796;11.978;2023-12-07T13:21:26;97092.38;;;4.27;40.02
25350;BME280;13302;48.796;11.978;2023-12-07T13:24:13;97097.22;;;4.30;39.83
25350;BME280;13302;48.796;11.978;2023-12-07T13:27:00;97109.22;;;4.34;39.67
25350;BME280;13302;48.796;11.978;2023-12-07T13:29:48;97102.50;;;4.40;39.42
25350;BME280;13302;48.796;11.978;2023-12-07T13:32:36;97100.47;;;4.45;38.96
25350;BME280;13302;48.796;11.978;2023-12-07T13:35:24;97101.47;;;4.49;39.02
25350;BME280;13302;48.796;11.978;2023-12-07T13:38:11;97097.59;;;4.50;38.79
25350;BME280;13302;48.796;11.978;2023-12-07T13:40:58;97096.22;;;4.53;38.58
25350;BME280;13302;48.796;11.978;2023-12-07T13:43:46;97089.41;;;4.50;38.59
25350;BME280;13302;48.796;11.978;2023-12-07T13:46:35;97088.81;;;4.53;38.49
25350;BME280;13302;48.796;11.978;2023-12-07T13:49:24;97089.28;;;4.55;38.41
25350;BME280;13302;48.796;11.978;2023-12-07T13:52:20;97073.69;;;4.56;37.87
25350;BME280;13302;48.796;11.978;2023-12-07T13:55:07;97071.03;;;4.51;37.75
25350;BME280;13302;48.796;11.978;2023-12-07T13:57:54;97061.25;;;4.50;37.78
25350;BME280;13302;48.796;11.978;2023-12-07T14:00:43;97061.25;;;4.50;37.70
25350;BME280;13302;48.796;11.978;2023-12-07T14:03:33;97067.44;;;4.42;37.61
25350;BME280;13302;48.796;11.978;2023-12-07T14:06:23;97049.28;;;4.46;37.52
25350;BME280;13302;48.796;11.978;2023-12-07T14:09:15;97046.84;;;4.44;37.68
25350;BME280;13302;48.796;11.978;2023-12-07T14:12:02;97051.00;;;4.42;37.65
25350;BME280;13302;48.796;11.978;2023-12-07T14:14:50;97045.53;;;4.42;37.54
25350;BME280;13302;48.796;11.978;2023-12-07T14:17:37;97055.47;;;4.38;37.69
25350;BME280;13302;48.796;11.978;2023-12-07T14:20:36;97049.78;;;4.34;37.71
25350;BME280;13302;48.796;11.978;2023-12-07T14:23:44;97056.06;;;4.35;37.53
25350;BME280;13302;48.796;11.978;2023-12-07T14:26:43;97054.25;;;4.30;37.16
25350;BME280;13302;48.796;11.978;2023-12-07T14:29:31;97044.94;;;4.31;37.17
25350;BME280;13302;48.796;11.978;2023-12-07T14:32:19;97050.22;;;4.28;37.16
25350;BME280;13302;48.796;11.978;2023-12-07T14:35:06;97060.44;;;4.22;37.17
25350;BME280;13302;48.796;11.978;2023-12-07T14:37:54;97058.31;;;4.19;37.33
25350;BME280;13302;48.796;11.978;2023-12-07T14:40:41;97063.28;;;4.17;37.02
25350;BME280;13302;48.796;11.978;2023-12-07T14:43:28;97055.09;;;4.17;36.99
25350;BME280;13302;48.796;11.978;2023-12-07T14:46:15;97060.34;;;4.13;37.09
25350;BME280;13302;48.796;11.978;2023-12-07T14:49:02;97057.41;;;4.10;37.01
25350;BME280;13302;48.796;11.978;2023-12-07T14:51:50;97053.84;;;4.09;36.76
25350;BME280;13302;48.796;11.978;2023-12-07T14:54:37;97055.09;;;4.03;36.96
25350;BME280;13302;48.796;11.978;2023-12-07T14:57:24;97056.59;;;3.96;36.92